Time;durP1;ratioP1;P1;durP2;ratioP2;P2;SDS_P1;SDS_P2;PMS_P1;PMS_P2;Temp;Humidity;BMP_temperature;BMP_pressure;BME280_temperature;BME280_humidity;BME280_pressure;Samples;Min_cycle;Max_cycle;Signal;HPM_P1;HPM_P2
2021/04/18 00:01:35;;;;;;;21.23;15.03;;;;;;;5.08;100.00;98685.55;3709182;79;44167;-25
2021/04/18 00:06:45;;;;;;;21.93;14.80;;;;;;;5.09;100.00;98683.75;3619089;81;44449;-25
2021/04/18 00:11:51;;;;;;;22.23;15.97;;;;;;;5.09;100.00;98683.75;3672155;80;43358;-27
2021/04/18 00:16:57;;;;;;;23.17;14.97;;;;;;;5.04;100.00;98676.56;3635708;80;43670;-25
2021/04/18 00:22:03;;;;;;;19.97;15.20;;;;;;;5.01;100.00;98675.00;3704506;79;44020;-25
2021/04/18 00:27:10;;;;;;;20.87;14.13;;;;;;;5.03;100.00;98667.72;3692663;79;43351;-26
2021/04/18 00:32:16;;;;;;;20.40;14.63;;;;;;;5.02;100.00;98666.02;3579169;81;44006;-26
2021/04/18 00:37:22;;;;;;;24.17;16.13;;;;;;;5.00;100.00;98665.28;3690521;79;44021;-26
2021/04/18 00:42:30;;;;;;;24.53;16.10;;;;;;;4.99;100.00;98653.40;3688138;79;43314;-26
2021/04/18 00:47:39;;;;;;;23.47;15.67;;;;;;;4.94;100.00;98651.92;3689393;79;44235;-26
2021/04/18 00:52:45;;;;;;;22.53;16.00;;;;;;;4.96;100.00;98652.30;3689510;79;43466;-26
2021/04/18 00:57:51;;;;;;;20.23;15.13;;;;;;;4.90;100.00;98648.28;3690955;79;44300;-26
2021/04/18 01:02:57;;;;;;;22.23;15.90;;;;;;;4.92;100.00;98655.20;3684980;79;44074;-26
2021/04/18 01:08:09;;;;;;;23.30;16.30;;;;;;;4.94;100.00;98659.07;3692971;79;45269;-26
2021/04/18 01:13:14;;;;;;;22.40;16.33;;;;;;;4.92;100.00;98654.36;3684767;79;43983;-27
2021/04/18 01:18:20;;;;;;;20.27;13.77;;;;;;;4.93;100.00;98648.05;3690709;79;43646;-27
2021/04/18 01:23:27;;;;;;;20.80;15.17;;;;;;;4.96;100.00;98637.61;3698677;78;43141;-27
2021/04/18 01:28:34;;;;;;;21.90;15.77;;;;;;;4.93;100.00;98630.20;3705453;79;26443;-27
2021/04/18 01:33:41;;;;;;;20.27;15.40;;;;;;;4.87;100.00;98622.69;3708184;79;44992;-26
2021/04/18 01:38:48;;;;;;;22.30;15.47;;;;;;;4.80;100.00;98621.45;3703904;79;43291;-27
2021/04/18 01:43:54;;;;;;;21.07;15.13;;;;;;;4.81;100.00;98619.64;3708344;79;44233;-26
2021/04/18 01:49:00;;;;;;;21.33;14.67;;;;;;;4.78;100.00;98623.38;3707226;79;44018;-26
2021/04/18 01:54:08;;;;;;;23.13;15.87;;;;;;;4.71;100.00;98615.50;3706941;79;43693;-27
2021/04/18 01:59:15;;;;;;;27.93;16.83;;;;;;;4.66;100.00;98615.86;3706555;79;43713;-26
2021/04/18 02:04:40;;;;;;;26.53;15.73;;;;;;;4.61;100.00;98609.55;3707476;79;26733;-26
2021/04/18 02:09:48;;;;;;;21.33;15.27;;;;;;;4.70;100.00;98616.46;3706518;79;43678;-27
2021/04/18 02:14:56;;;;;;;23.83;15.20;;;;;;;4.72;100.00;98622.04;3704026;79;42831;-27
2021/04/18 02:20:03;;;;;;;23.93;15.60;;;;;;;4.72;100.00;98614.53;3706089;79;44016;-27
2021/04/18 02:25:11;;;;;;;21.40;14.80;;;;;;;4.72;100.00;98615.87;3704042;79;43673;-26
2021/04/18 02:30:20;;;;;;;22.73;15.07;;;;;;;4.69;100.00;98614.30;3706683;79;44003;-27
2021/04/18 02:35:27;;;;;;;23.40;15.53;;;;;;;4.78;100.00;98608.23;3707664;79;43990;-26
2021/04/18 02:40:34;;;;;;;21.80;15.20;;;;;;;4.75;100.00;98604.95;3705514;79;43380;-26
2021/04/18 02:45:42;;;;;;;27.23;15.70;;;;;;;4.70;100.00;98597.78;3702811;79;43368;-27
2021/04/18 02:50:49;;;;;;;22.90;15.20;;;;;;;4.67;100.00;98598.02;3706699;79;44580;-26
2021/04/18 02:55:56;;;;;;;26.13;16.33;;;;;;;4.68;100.00;98598.38;3706840;79;44018;-26
2021/04/18 03:01:07;;;;;;;22.90;16.00;;;;;;;4.61;100.00;98595.34;3690771;79;26381;-26
2021/04/18 03:06:14;;;;;;;24.17;15.83;;;;;;;4.48;100.00;98596.78;3706555;79;26397;-26
2021/04/18 03:11:22;;;;;;;27.13;17.60;;;;;;;4.43;100.00;98597.14;3706216;79;43606;-27
2021/04/18 03:16:30;;;;;;;26.80;18.00;;;;;;;4.43;100.00;98601.14;3708098;79;43372;-25
2021/04/18 03:21:38;;;;;;;28.47;19.10;;;;;;;4.47;100.00;98599.08;3705476;79;44329;-26
2021/04/18 03:26:44;;;;;;;27.23;17.63;;;;;;;4.40;100.00;98596.03;3697416;79;43718;-26
2021/04/18 03:31:51;;;;;;;27.87;18.00;;;;;;;4.40;100.00;98595.20;3692194;79;44075;-26
2021/04/18 03:36:58;;;;;;;28.40;17.87;;;;;;;4.39;100.00;98603.67;3692202;79;43963;-26
2021/04/18 03:42:09;;;;;;;26.50;17.70;;;;;;;4.43;100.00;98604.27;3693367;79;42897;-26
2021/04/18 03:47:18;;;;;;;29.67;17.53;;;;;;;4.37;100.00;98600.77;3694043;79;43689;-25
2021/04/18 03:52:32;;;;;;;27.33;17.33;;;;;;;4.33;100.00;98608.16;3693956;79;26372;-26
2021/04/18 03:57:38;;;;;;;26.40;16.93;;;;;;;4.34;100.00;98606.32;3695819;79;43645;-26
2021/04/18 04:02:45;;;;;;;29.60;17.80;;;;;;;4.34;100.00;98595.66;3693017;79;43710;-24
2021/04/18 04:07:54;;;;;;;26.23;17.47;;;;;;;4.33;100.00;98601.48;3695272;79;26788;-26
2021/04/18 04:13:01;;;;;;;24.37;17.03;;;;;;;4.36;100.00;98601.72;3694360;79;43172;-25
2021/04/18 04:18:09;;;;;;;25.57;16.53;;;;;;;4.38;100.00;98611.30;3694966;79;26456;-25
2021/04/18 04:23:18;;;;;;;23.43;15.90;;;;;;;4.40;100.00;98615.20;3690946;79;26284;-26
2021/04/18 04:28:26;;;;;;;23.47;15.90;;;;;;;4.42;100.00;98621.25;3724928;78;43474;-25
2021/04/18 04:33:37;;;;;;;23.47;16.07;;;;;;;4.46;100.00;98627.59;3657963;80;43283;-25
2021/04/18 04:38:43;;;;;;;24.73;15.53;;;;;;;4.48;100.00;98618.96;3723501;78;43665;-27
2021/04/18 04:43:50;;;;;;;21.77;14.87;;;;;;;4.50;100.00;98617.53;3725273;78;44162;-27
2021/04/18 04:48:55;;;;;;;24.70;16.53;;;;;;;4.54;100.00;98622.97;3723158;78;44566;-26
2021/04/18 04:54:02;;;;;;;23.53;15.20;;;;;;;4.55;100.00;98615.34;3640196;80;44444;-26
2021/04/18 04:59:08;;;;;;;24.33;14.83;;;;;;;4.59;100.00;98616.81;3725415;78;43150;-26
2021/04/18 05:04:14;;;;;;;24.63;15.33;;;;;;;4.62;100.00;98613.92;3723483;78;43680;-26
2021/04/18 05:09:21;;;;;;;24.63;15.63;;;;;;;4.69;100.00;98622.30;3723552;78;43380;-25
2021/04/18 05:14:27;;;;;;;26.10;16.37;;;;;;;4.72;100.00;98609.20;3726203;78;43973;-26
2021/04/18 05:19:33;;;;;;;23.77;15.87;;;;;;;4.69;100.00;98614.30;3725794;78;44421;-26
2021/04/18 05:24:39;;;;;;;23.77;15.97;;;;;;;4.70;100.00;98617.80;3721709;78;44145;-27
2021/04/18 05:29:46;;;;;;;24.50;15.17;;;;;;;4.68;100.00;98613.92;3702943;79;44019;-27
2021/04/18 05:34:52;;;;;;;26.73;16.73;;;;;;;4.63;100.00;98616.95;3647675;80;43994;-26
2021/04/18 05:39:59;;;;;;;28.53;18.03;;;;;;;4.65;100.00;98617.29;3708676;79;43771;-26
2021/04/18 05:45:09;;;;;;;25.17;15.90;;;;;;;4.62;100.00;98621.92;3663956;80;43204;-26
2021/04/18 05:50:17;;;;;;;26.83;16.33;;;;;;;4.66;100.00;98617.19;3634755;80;43726;-25
2021/04/18 05:55:23;;;;;;;26.03;17.20;;;;;;;4.76;100.00;98625.34;3703555;79;43678;-26
2021/04/18 06:00:29;;;;;;;27.40;17.00;;;;;;;4.89;100.00;98626.06;3702288;79;43471;-26
2021/04/18 06:05:36;;;;;;;26.77;17.60;;;;;;;5.07;100.00;98621.59;3702311;79;44029;-21
2021/04/18 06:10:44;;;;;;;26.97;17.00;;;;;;;5.37;100.00;98617.44;3636204;80;43684;-22
2021/04/18 06:15:53;;;;;;;25.00;16.60;;;;;;;5.52;100.00;98620.21;3700867;79;44031;-21
2021/04/18 06:20:59;;;;;;;25.33;16.97;;;;;;;5.50;100.00;98616.81;3701689;79;44165;-21
2021/04/18 06:26:05;;;;;;;26.80;16.07;;;;;;;5.57;100.00;98616.33;3669321;79;44515;-23
2021/04/18 06:36:08;;;;;;;21.40;14.73;;;;;;;5.69;100.00;98620.68;3987585;73;30565;-20
2021/04/18 06:41:19;;;;;;;25.93;15.63;;;;;;;5.80;100.00;98629.14;3929771;74;44060;-22
2021/04/18 06:46:25;;;;;;;25.40;16.00;;;;;;;5.78;100.00;98619.92;3929373;74;43281;-23
2021/04/18 06:51:32;;;;;;;25.27;15.23;;;;;;;5.97;100.00;98618.39;3932370;74;44053;-20
2021/04/18 06:56:37;;;;;;;23.30;15.10;;;;;;;6.25;100.00;98629.00;3922734;74;44094;-21
2021/04/18 07:01:43;;;;;;;22.90;14.80;;;;;;;6.40;100.00;98630.90;3933972;74;43371;-21
2021/04/18 07:06:53;;;;;;;25.13;15.20;;;;;;;6.31;100.00;98629.84;3920247;75;73629;-21
2021/04/18 07:12:02;;;;;;;22.60;14.80;;;;;;;6.45;100.00;98629.17;3829287;74;44078;-22
2021/04/18 07:17:10;;;;;;;27.17;15.77;;;;;;;6.45;100.00;98627.33;3707027;78;43428;-22
2021/04/18 07:22:18;;;;;;;23.00;15.17;;;;;;;6.69;100.00;98624.88;3694857;78;44927;-21
2021/04/18 07:27:25;;;;;;;27.17;16.20;;;;;;;6.82;100.00;98629.18;3702046;79;44052;-21
2021/04/18 07:32:31;;;;;;;25.37;15.60;;;;;;;6.84;100.00;98628.56;3690514;78;43411;-22
2021/04/18 07:37:36;;;;;;;27.93;16.07;;;;;;;6.84;100.00;98624.55;3635732;80;43776;-22
2021/04/18 07:42:45;;;;;;;28.57;16.30;;;;;;;6.93;100.00;98624.61;3698107;78;44095;-22
2021/04/18 07:47:51;;;;;;;34.47;19.30;;;;;;;7.02;100.00;98627.46;3698999;78;43696;-21
2021/04/18 07:52:58;;;;;;;36.40;18.90;;;;;;;7.17;100.00;98627.95;3687739;78;44062;-21
2021/04/18 07:58:05;;;;;;;37.20;19.33;;;;;;;7.16;100.00;98634.28;3693208;78;43399;-21
2021/04/18 08:03:13;;;;;;;34.43;18.77;;;;;;;7.27;100.00;98634.19;3693891;78;44151;-22
2021/04/18 08:08:21;;;;;;;35.43;19.10;;;;;;;7.35;100.00;98630.33;3618285;80;44065;-21
2021/04/18 08:13:27;;;;;;;42.67;22.60;;;;;;;7.25;100.00;98641.51;3709609;78;44013;-22
2021/04/18 08:18:36;;;;;;;57.87;30.17;;;;;;;7.25;100.00;98628.11;3699841;78;44039;-22
2021/04/18 08:23:43;;;;;;;54.93;28.37;;;;;;;6.98;100.00;98636.73;3625162;80;43743;-22
2021/04/18 08:29:13;;;;;;;49.47;25.17;;;;;;;7.07;100.00;98631.44;3699075;78;43466;-22
2021/04/18 08:34:22;;;;;;;53.73;26.13;;;;;;;7.19;100.00;98635.36;3710496;78;44007;-21
2021/04/18 08:39:37;;;;;;;58.73;29.23;;;;;;;7.31;100.00;98627.59;3729334;78;43396;-22
2021/04/18 08:44:47;;;;;;;54.90;27.97;;;;;;;7.36;100.00;98621.31;3731196;78;44047;-22
2021/04/18 08:49:57;;;;;;;62.90;29.53;;;;;;;7.39;100.00;98630.94;3731414;78;44024;-22
2021/04/18 08:55:07;;;;;;;66.07;28.57;;;;;;;7.45;100.00;98629.54;3731686;78;44140;-21
2021/04/18 09:00:15;;;;;;;56.43;25.93;;;;;;;7.54;100.00;98628.72;3676195;79;43497;-22
2021/04/18 09:05:35;;;;;;;39.97;22.43;;;;;;;7.52;100.00;98634.70;3729345;78;44181;-22
2021/04/18 09:10:41;;;;;;;45.73;23.17;;;;;;;7.43;100.00;98639.55;3730901;78;43396;-21
2021/04/18 09:15:47;;;;;;;39.87;21.67;;;;;;;7.43;100.00;98637.70;3676341;80;44077;-22
2021/04/18 09:21:15;;;;;;;38.93;20.33;;;;;;;7.51;100.00;98639.70;3607777;81;73631;-22
2021/04/18 09:26:21;;;;;;;35.43;19.70;;;;;;;7.42;100.00;98631.14;3605706;81;43106;-22
2021/04/18 09:31:27;;;;;;;34.83;20.63;;;;;;;7.55;100.00;98635.77;3730396;79;44510;-22
2021/04/18 09:36:34;;;;;;;31.57;20.40;;;;;;;7.40;100.00;98641.51;3671093;79;43835;-22
2021/04/18 09:41:41;;;;;;;35.40;21.67;;;;;;;7.38;100.00;98635.42;3674848;80;44065;-23
2021/04/18 09:46:47;;;;;;;38.07;21.60;;;;;;;7.38;100.00;98639.95;3601069;81;43348;-22
2021/04/18 09:51:55;;;;;;;36.17;21.90;;;;;;;7.19;100.00;98647.42;3598669;81;42942;-22
2021/04/18 09:57:24;;;;;;;35.17;22.00;;;;;;;7.38;100.00;98643.47;3657821;80;77488;-21
2021/04/18 10:02:32;;;;;;;37.03;22.27;;;;;;;7.39;100.00;98638.47;3729028;78;43001;-21
2021/04/18 10:07:39;;;;;;;42.93;24.27;;;;;;;7.25;100.00;98640.17;3729402;78;44175;-21
2021/04/18 10:12:51;;;;;;;38.80;23.57;;;;;;;7.38;100.00;98643.47;3676025;80;43109;-21
2021/04/18 10:17:56;;;;;;;44.93;24.47;;;;;;;7.41;100.00;98631.62;3729529;78;77838;-21
2021/04/18 10:23:08;;;;;;;46.37;25.17;;;;;;;7.46;100.00;98635.27;3731020;78;43132;-21
2021/04/18 10:28:14;;;;;;;47.35;26.17;;;;;;;7.48;100.00;98637.28;3673060;79;77798;-21
2021/04/18 10:33:20;;;;;;;48.93;26.60;;;;;;;7.43;100.00;98644.91;3730368;78;43670;-21
2021/04/18 10:38:26;;;;;;;51.10;27.80;;;;;;;7.27;100.00;98655.62;3654357;79;44429;-21
2021/04/18 10:43:32;;;;;;;45.57;24.30;;;;;;;7.28;100.00;98658.66;3666209;79;77707;-26
2021/04/18 10:48:39;;;;;;;41.10;23.90;;;;;;;7.25;100.00;98650.89;3661195;79;44229;-26
2021/04/18 10:53:50;;;;;;;48.03;26.20;;;;;;;7.30;100.00;98652.69;3624577;81;44086;-25
2021/04/18 10:58:56;;;;;;;53.60;27.83;;;;;;;7.31;100.00;98646.34;3605743;81;43955;-27
2021/04/18 11:04:03;;;;;;;48.90;26.37;;;;;;;7.43;100.00;98639.04;3622494;81;43464;-25
2021/04/18 11:09:09;;;;;;;53.38;27.40;;;;;;;7.25;100.00;98645.05;3576674;81;78287;-25
2021/04/18 11:14:15;;;;;;;55.67;28.03;;;;;;;7.25;100.00;98641.51;3598517;81;43666;-26
2021/04/18 11:19:21;;;;;;;49.13;25.27;;;;;;;7.51;100.00;98639.70;3631645;80;44030;-26
2021/04/18 11:24:28;;;;;;;46.60;25.17;;;;;;;7.46;100.00;98641.96;3604139;81;43423;-26
2021/04/18 11:29:34;;;;;;;47.35;26.25;;;;;;;7.65;100.00;98634.44;3601892;81;43749;-28
2021/04/18 11:34:40;;;;;;;48.00;26.53;;;;;;;7.78;100.00;98632.86;3645725;79;44039;-26
2021/04/18 11:39:47;;;;;;;51.23;26.70;;;;;;;7.81;100.00;98633.94;3720769;78;45166;-27
2021/04/18 11:44:55;;;;;;;55.80;28.02;;;;;;;7.86;100.00;98625.83;3720087;78;43313;-26
2021/04/18 11:50:03;;;;;;;45.20;24.65;;;;;;;8.10;100.00;98624.58;3720340;78;44015;-27
2021/04/18 12:00:37;;;;;;;44.53;24.37;;;;;;;8.16;100.00;98624.51;3721409;78;44041;-27
2021/04/18 12:05:43;;;;;;;45.60;25.00;;;;;;;7.99;100.00;98624.20;3720550;78;77790;-27
2021/04/18 12:10:51;;;;;;;48.52;26.05;;;;;;;7.77;100.00;98625.30;3718521;78;44582;-26
2021/04/18 12:15:57;;;;;;;42.97;24.07;;;;;;;7.90;100.00;98618.34;3717473;78;43716;-26
2021/04/18 12:21:06;;;;;;;44.33;23.50;;;;;;;7.74;100.00;98618.89;3721226;78;44110;-26
2021/04/18 12:26:17;;;;;;;36.87;21.57;;;;;;;7.81;100.00;98613.81;3721887;78;43366;-27
2021/04/18 12:31:23;;;;;;;34.57;20.03;;;;;;;7.88;100.00;98620.31;3722791;78;43452;-27
2021/04/18 12:36:29;;;;;;;37.47;20.07;;;;;;;7.79;100.00;98615.78;3716364;78;44081;-26
2021/04/18 12:41:37;;;;;;;38.53;22.60;;;;;;;7.71;100.00;98615.13;3630579;80;43396;-26
2021/04/18 12:46:47;;;;;;;38.73;21.97;;;;;;;7.57;100.00;98616.38;3692640;78;43482;-27
2021/04/18 12:51:54;;;;;;;33.90;19.43;;;;;;;7.63;100.00;98618.50;3622650;80;43687;-27
2021/04/18 12:57:04;;;;;;;35.37;20.00;;;;;;;7.64;100.00;98614.83;3689985;78;77457;-27
2021/04/18 13:02:10;;;;;;;30.60;18.63;;;;;;;7.69;100.00;98623.80;3689400;78;43471;-27
2021/04/18 13:07:22;;;;;;;31.23;17.70;;;;;;;7.76;100.00;98620.08;3691928;78;77755;-27
2021/04/18 13:12:28;;;;;;;26.10;16.10;;;;;;;7.81;100.00;98620.53;3623165;80;43331;-27
2021/04/18 13:17:34;;;;;;;22.23;13.93;;;;;;;7.81;100.00;98613.81;3698611;78;43681;-27
2021/04/18 13:22:44;;;;;;;22.65;13.90;;;;;;;7.78;100.00;98604.70;3690287;78;44022;-28
2021/04/18 13:27:53;;;;;;;21.60;13.63;;;;;;;7.80;100.00;98610.78;3695980;78;73219;-27
2021/04/18 13:32:59;;;;;;;23.03;13.70;;;;;;;7.99;100.00;98607.27;3632673;80;44117;-27
2021/04/18 13:38:05;;;;;;;19.33;13.00;;;;;;;8.03;100.00;98604.64;3729132;77;43669;-28
2021/04/18 13:43:26;;;;;;;20.67;13.77;;;;;;;7.83;100.00;98603.77;3676653;79;43641;-28
2021/04/18 13:48:33;;;;;;;22.43;14.27;;;;;;;7.92;100.00;98614.17;3725894;78;44045;-28
2021/04/18 13:53:40;;;;;;;19.43;12.03;;;;;;;8.00;100.00;98603.58;3665037;79;43346;-28
2021/04/18 13:58:49;;;;;;;16.57;11.77;;;;;;;7.90;100.00;98600.91;3758215;77;43369;-28
2021/04/18 14:03:54;;;;;;;15.30;10.50;;;;;;;7.96;100.00;98602.19;3732124;78;43460;-27
2021/04/18 14:09:01;;;;;;;16.17;11.17;;;;;;;7.80;100.00;98602.73;3673031;79;43712;-28
2021/04/18 14:14:08;;;;;;;13.50;9.83;;;;;;;7.92;100.00;98600.75;3755656;77;44746;-27
2021/04/18 14:19:14;;;;;;;11.97;8.97;;;;;;;7.90;100.00;98600.91;3744685;77;43397;-26
2021/04/18 14:24:20;;;;;;;9.57;6.60;;;;;;;7.85;100.00;98599.13;3733266;78;69076;-26
2021/04/18 14:29:26;;;;;;;9.03;7.00;;;;;;;7.86;100.00;98591.43;3657488;79;43967;-26
2021/04/18 14:34:32;;;;;;;8.03;5.83;;;;;;;7.92;100.00;98584.66;3727663;77;43714;-26
2021/04/18 14:39:39;;;;;;;7.47;4.50;;;;;;;7.99;100.00;98586.64;3698665;78;43727;-26
2021/04/18 14:44:44;;;;;;;6.67;5.07;;;;;;;8.04;100.00;98584.88;3694484;78;44438;-26
2021/04/18 14:49:51;;;;;;;6.93;4.47;;;;;;;8.08;100.00;98584.09;3696040;78;69025;-26
2021/04/18 14:54:59;;;;;;;5.73;4.90;;;;;;;8.05;100.00;98576.34;3614552;80;44467;-27
2021/04/18 15:00:10;;;;;;;5.00;3.83;;;;;;;8.23;100.00;98575.14;3695823;78;43681;-26
2021/04/18 15:05:18;;;;;;;5.17;3.80;;;;;;;8.33;100.00;98568.75;3689043;78;69072;-26
2021/04/18 15:10:27;;;;;;;5.35;3.85;;;;;;;8.23;100.00;98573.30;3701737;78;44073;-27
2021/04/18 15:15:33;;;;;;;6.03;4.10;;;;;;;8.26;100.00;98574.36;3689502;78;44055;-28
2021/04/18 15:20:44;;;;;;;5.37;4.00;;;;;;;8.17;100.00;98576.56;3697400;78;44378;-27
2021/04/18 15:25:51;;;;;;;4.28;3.55;;;;;;;8.04;100.00;98574.66;3706558;78;43378;-28
2021/04/18 15:30:57;;;;;;;4.93;3.50;;;;;;;7.97;100.00;98576.55;3696492;78;43704;-27
2021/04/18 15:36:13;;;;;;;4.47;3.70;;;;;;;7.97;100.00;98577.88;3619482;80;43678;-27
2021/04/18 15:41:25;;;;;;;5.97;4.60;;;;;;;7.93;100.00;98576.48;3745556;78;43714;-26
2021/04/18 15:46:35;;;;;;;6.27;4.40;;;;;;;7.88;100.00;98580.08;3741818;78;70152;-27
2021/04/18 15:51:42;;;;;;;6.03;4.93;;;;;;;7.80;100.00;98575.91;3738465;77;43719;-27
2021/04/18 15:56:50;;;;;;;7.17;5.53;;;;;;;7.86;100.00;98583.38;3737787;78;44486;-28
2021/04/18 16:01:56;;;;;;;5.93;4.70;;;;;;;7.84;100.00;98579.98;3717351;77;69466;-28
2021/04/18 16:07:04;;;;;;;6.03;4.80;;;;;;;7.74;100.00;98575.11;3734437;78;43422;-26
2021/04/18 16:12:13;;;;;;;8.10;5.20;;;;;;;7.66;100.00;98584.72;3727531;78;44045;-26
2021/04/18 16:17:18;;;;;;;6.70;5.23;;;;;;;7.51;100.00;98578.05;3731560;78;44040;-26
2021/04/18 16:22:24;;;;;;;9.73;6.60;;;;;;;7.48;100.00;98575.63;3724645;79;43093;-26
2021/04/18 16:27:30;;;;;;;10.90;7.77;;;;;;;7.50;100.00;98577.69;3726661;78;75624;-25
2021/04/18 16:32:37;;;;;;;13.25;8.58;;;;;;;7.53;100.00;98586.29;3718760;79;75843;-27
2021/04/18 16:37:46;;;;;;;8.70;6.75;;;;;;;7.53;100.00;98584.12;3721122;78;44039;-27
2021/04/18 16:42:54;;;;;;;10.63;7.67;;;;;;;7.39;100.00;98584.02;3716125;78;43690;-27
2021/04/18 16:48:03;;;;;;;10.00;7.20;;;;;;;7.39;100.00;98590.22;3692402;78;44066;-27
2021/04/18 16:53:09;;;;;;;9.80;7.60;;;;;;;7.42;100.00;98595.79;3616920;80;71108;-26
2021/04/18 16:58:18;;;;;;;10.93;8.20;;;;;;;7.38;100.00;98600.58;3690573;78;44061;-27
2021/04/18 17:03:24;;;;;;;10.37;7.57;;;;;;;7.39;100.00;98607.64;3617030;80;44490;-27
2021/04/18 17:08:32;;;;;;;10.57;7.40;;;;;;;7.47;100.00;98610.12;3685044;78;44882;-27
2021/04/18 17:13:40;;;;;;;11.80;8.50;;;;;;;7.42;100.00;98612.38;3689464;78;43678;-27
2021/04/18 17:18:48;;;;;;;12.65;8.03;;;;;;;7.34;100.00;98615.27;3699860;78;43083;-27
2021/04/18 17:23:55;;;;;;;11.50;8.40;;;;;;;7.33;100.00;98615.38;3631786;80;43463;-30
2021/04/18 17:29:02;;;;;;;13.67;9.30;;;;;;;7.29;100.00;98620.17;3687698;78;43210;-29
2021/04/18 17:34:08;;;;;;;14.17;9.40;;;;;;;7.31;100.00;98624.91;3694564;78;44012;-29
2021/04/18 17:39:14;;;;;;;13.20;9.58;;;;;;;7.24;100.00;98630.43;3710963;78;43462;-29
2021/04/18 17:44:20;;;;;;;14.53;10.35;;;;;;;7.27;100.00;98626.66;3725018;78;77565;-26
2021/04/18 17:49:29;;;;;;;15.20;11.10;;;;;;;7.26;100.00;98632.48;3718078;78;44053;-26
2021/04/18 17:54:37;;;;;;;15.68;10.80;;;;;;;7.21;100.00;98630.72;3741547;77;43995;-27
2021/04/18 17:59:43;;;;;;;15.23;10.25;;;;;;;7.23;100.00;98634.13;3727205;78;43373;-26
2021/04/18 18:04:49;;;;;;;15.93;10.83;;;;;;;7.24;100.00;98634.45;3726954;78;77353;-26
2021/04/18 18:09:56;;;;;;;14.97;10.87;;;;;;;7.21;100.00;98639.59;3736034;78;43690;-27
2021/04/18 18:15:03;;;;;;;16.37;10.90;;;;;;;7.15;100.00;98639.28;3707545;78;42845;-26
2021/04/18 18:20:11;;;;;;;15.93;10.40;;;;;;;7.15;100.00;98648.19;3727891;78;42858;-26
2021/04/18 18:25:21;;;;;;;15.17;10.40;;;;;;;7.14;100.00;98650.50;3726510;78;77843;-24
2021/04/18 18:30:28;;;;;;;14.83;10.77;;;;;;;7.19;100.00;98646.08;3597600;81;77805;-24
2021/04/18 18:35:33;;;;;;;15.27;10.60;;;;;;;7.15;100.00;98653.55;3605830;81;43460;-24
2021/04/18 18:40:39;;;;;;;16.70;11.00;;;;;;;7.20;100.00;98666.03;3601247;81;43619;-25
2021/04/18 18:45:49;;;;;;;20.53;13.93;;;;;;;7.12;100.00;98669.88;3739295;77;43971;-24
2021/04/18 18:50:54;;;;;;;25.33;16.53;;;;;;;7.12;100.00;98666.33;3717181;78;43279;-24
2021/04/18 18:56:01;;;;;;;31.50;18.40;;;;;;;7.15;100.00;98666.08;3659431;79;43328;-25
2021/04/18 19:01:08;;;;;;;30.10;18.23;;;;;;;7.20;100.00;98670.05;3741103;77;43412;-25
2021/04/18 19:06:14;;;;;;;31.50;17.90;;;;;;;7.25;100.00;98670.98;3721533;78;43758;-25
2021/04/18 19:11:20;;;;;;;32.10;19.67;;;;;;;7.26;100.00;98671.34;3717334;78;43486;-24
2021/04/18 19:16:26;;;;;;;28.47;19.07;;;;;;;7.29;100.00;98672.94;3593204;80;44094;-25
2021/04/18 19:21:33;;;;;;;30.23;19.07;;;;;;;7.31;100.00;98677.16;3733775;77;43690;-24
2021/04/18 19:26:39;;;;;;;29.00;18.07;;;;;;;7.29;100.00;98674.27;3715095;78;44784;-24
2021/04/18 19:31:49;;;;;;;26.33;16.27;;;;;;;7.30;100.00;98675.47;3660418;79;43724;-27
2021/04/18 19:36:56;;;;;;;30.23;17.90;;;;;;;7.32;100.00;98677.53;3756014;77;43343;-27
2021/04/18 19:42:02;;;;;;;30.57;19.10;;;;;;;7.30;100.00;98671.45;3706613;78;44627;-27
2021/04/18 19:47:10;;;;;;;28.67;17.77;;;;;;;7.26;100.00;98674.02;3685825;78;44061;-27
2021/04/18 19:52:16;;;;;;;27.80;17.63;;;;;;;7.24;100.00;98674.64;3692470;78;44109;-27
2021/04/18 19:57:22;;;;;;;30.90;19.40;;;;;;;7.23;100.00;98668.95;3686560;78;43514;-27
2021/04/18 20:02:29;;;;;;;33.07;19.00;;;;;;;7.24;100.00;98668.81;3680012;78;42946;-27
2021/04/18 20:07:35;;;;;;;28.93;17.90;;;;;;;7.25;100.00;98672.33;3707020;78;43918;-26
2021/04/18 20:12:41;;;;;;;32.03;18.43;;;;;;;7.15;100.00;98671.44;3629188;80;43550;-26
2021/04/18 20:17:49;;;;;;;29.03;17.50;;;;;;;7.12;100.00;98673.89;3694688;78;43985;-26
2021/04/18 20:22:56;;;;;;;29.27;18.50;;;;;;;7.13;100.00;98673.39;3620718;80;43405;-27
2021/04/18 20:28:02;;;;;;;33.97;20.23;;;;;;;7.06;100.00;98671.26;3708421;78;44051;-26
2021/04/18 20:33:08;;;;;;;32.00;19.47;;;;;;;7.09;100.00;98671.00;3692151;78;43673;-26
2021/04/18 20:38:19;;;;;;;36.83;20.40;;;;;;;7.08;100.00;98673.80;3633648;80;43687;-27
2021/04/18 20:43:26;;;;;;;32.60;20.10;;;;;;;7.06;100.00;98671.26;3688749;78;44431;-26
2021/04/18 20:48:32;;;;;;;36.67;21.60;;;;;;;7.02;100.00;98670.32;3671281;79;44485;-26
2021/04/18 20:53:40;;;;;;;35.77;19.60;;;;;;;6.96;100.00;98666.34;3652358;79;43454;-27
2021/04/18 20:58:46;;;;;;;34.07;19.73;;;;;;;6.95;100.00;98667.32;3647177;79;77867;-27
2021/04/18 21:03:53;;;;;;;36.20;20.90;;;;;;;6.97;100.00;98668.05;3648094;79;43604;-26
2021/04/18 21:08:59;;;;;;;38.77;21.07;;;;;;;6.97;100.00;98662.69;3648472;79;43386;-26
2021/04/18 21:14:05;;;;;;;39.80;21.83;;;;;;;6.99;100.00;98659.39;3655431;79;44043;-26
2021/04/18 21:19:11;;;;;;;34.17;19.87;;;;;;;6.98;100.00;98656.35;3661745;79;43067;-26
2021/04/18 21:24:17;;;;;;;35.53;20.10;;;;;;;6.93;100.00;98661.24;3657402;79;44066;-26
2021/04/18 21:29:24;;;;;;;35.50;19.83;;;;;;;6.95;100.00;98663.30;3649325;79;44231;-26
2021/04/18 21:34:30;;;;;;;35.07;19.60;;;;;;;6.94;100.00;98659.76;3644375;79;44169;-26
2021/04/18 21:39:37;;;;;;;34.53;18.97;;;;;;;6.93;100.00;98663.45;3641961;79;42955;-26
2021/04/18 21:44:44;;;;;;;32.83;19.10;;;;;;;6.92;100.00;98667.10;3653236;79;43420;-26
2021/04/18 21:49:50;;;;;;;32.33;19.20;;;;;;;6.90;100.00;98669.06;3717421;78;43389;-26
2021/04/18 21:54:56;;;;;;;32.50;19.13;;;;;;;6.84;100.00;98667.39;3722582;78;44058;-27
2021/04/18 22:00:02;;;;;;;29.30;18.23;;;;;;;6.86;100.00;98668.95;3723742;78;77555;-26
2021/04/18 22:05:11;;;;;;;32.77;20.07;;;;;;;6.78;100.00;98668.27;3728232;78;26316;-26
2021/04/18 22:10:17;;;;;;;32.43;19.07;;;;;;;6.75;100.00;98676.59;3721248;78;44515;-26
2021/04/18 22:15:25;;;;;;;34.87;20.17;;;;;;;6.73;100.00;98676.33;3665943;79;44062;-26
2021/04/18 22:20:30;;;;;;;34.27;20.40;;;;;;;6.73;100.00;98675.86;3645426;78;43124;-26
2021/04/18 22:25:38;;;;;;;36.60;19.80;;;;;;;6.72;100.00;98675.50;3601255;81;44407;-26
2021/04/18 22:30:44;;;;;;;33.07;19.23;;;;;;;6.74;100.00;98676.69;3596252;81;44196;-27
2021/04/18 22:35:50;;;;;;;37.03;20.27;;;;;;;6.76;100.00;98666.70;3601482;81;44118;-27
2021/04/18 22:40:56;;;;;;;33.80;17.90;;;;;;;6.74;100.00;98662.83;3600775;81;43241;-26
2021/04/18 22:46:02;;;;;;;32.97;19.57;;;;;;;6.76;100.00;98660.84;3596788;81;43433;-26
2021/04/18 22:51:08;;;;;;;37.97;20.43;;;;;;;6.70;100.00;98661.39;3595677;81;43673;-27
2021/04/18 22:56:14;;;;;;;35.37;19.97;;;;;;;6.62;100.00;98655.34;3594964;81;43182;-26
2021/04/18 23:01:20;;;;;;;32.23;18.43;;;;;;;6.56;100.00;98650.99;3596212;81;44687;-26
2021/04/18 23:06:27;;;;;;;33.93;19.33;;;;;;;6.46;100.00;98648.27;3594823;81;43388;-26
2021/04/18 23:11:33;;;;;;;33.17;18.73;;;;;;;6.37;100.00;98642.33;3594325;81;44180;-27
2021/04/18 23:16:39;;;;;;;34.63;19.57;;;;;;;6.27;100.00;98648.96;3594528;81;44312;-26
2021/04/18 23:21:45;;;;;;;36.10;19.23;;;;;;;6.15;100.00;98634.30;3593715;81;44002;-26
2021/04/18 23:26:52;;;;;;;41.33;20.23;;;;;;;6.03;100.00;98640.66;3595318;81;44021;-26
2021/04/18 23:32:00;;;;;;;42.60;21.10;;;;;;;5.92;100.00;98642.00;3595876;81;44491;-26
2021/04/18 23:37:07;;;;;;;42.43;22.37;;;;;;;5.89;100.00;98632.39;3537563;82;44021;-27
2021/04/18 23:42:13;;;;;;;41.30;21.50;;;;;;;5.90;100.00;98642.11;3592449;81;44070;-26
2021/04/18 23:47:19;;;;;;;40.93;20.53;;;;;;;5.98;100.00;98631.66;3578901;81;44328;-26